createdAt,value
2017-11-06T00:00:10.780Z,101403.78
2017-11-06T00:02:13.254Z,101405.55
2017-11-06T00:04:15.696Z,101404.62
2017-11-06T00:06:18.149Z,101400.58
2017-11-06T00:08:20.603Z,101405.55
2017-11-06T00:10:23.041Z,101410.09
2017-11-06T00:12:25.496Z,101411.44
2017-11-06T00:14:27.965Z,101411.02
2017-11-06T00:16:30.417Z,101406.55
2017-11-06T00:18:32.880Z,101421.81
2017-11-06T00:20:35.336Z,101413.72
2017-11-06T00:22:37.784Z,101417.34
2017-11-06T00:24:40.308Z,101417.77
2017-11-06T00:26:42.747Z,101418.69
2017-11-06T00:28:45.465Z,101423.23
2017-11-06T00:30:47.925Z,101427.70
2017-11-06T00:32:50.369Z,101420.96
2017-11-06T00:34:52.804Z,101425.93
2017-11-06T00:36:55.254Z,101428.12
2017-11-06T00:38:57.692Z,101431.75
2017-11-06T00:41:00.124Z,101436.72
2017-11-06T00:43:02.591Z,101430.90
2017-11-06T00:45:05.085Z,101433.59
2017-11-06T00:47:07.591Z,101437.22
2017-11-06T00:49:10.058Z,101437.72
2017-11-06T00:51:12.496Z,101439.06
2017-11-06T00:53:14.935Z,101448.00
2017-11-06T00:55:17.465Z,101451.20
2017-11-06T00:57:19.941Z,101456.17
2017-11-06T00:59:22.411Z,101449.43
2017-11-06T01:01:24.886Z,101454.75
2017-11-06T01:03:27.352Z,101451.20
2017-11-06T01:05:29.826Z,101456.17
2017-11-06T01:07:32.290Z,101453.08
2017-11-06T01:09:34.769Z,101453.59
2017-11-06T01:11:37.214Z,101458.98
2017-11-06T01:13:39.704Z,101463.10
2017-11-06T01:15:42.138Z,101460.83
2017-11-06T01:17:44.577Z,101464.45
2017-11-06T01:19:47.037Z,101461.25
2017-11-06T01:21:49.473Z,101462.25
2017-11-06T01:23:51.943Z,101471.61
2017-11-06T01:25:54.427Z,101467.64
2017-11-06T01:27:56.859Z,101476.51
2017-11-06T01:29:59.429Z,101471.69
2017-11-06T01:32:02.005Z,101478.86
2017-11-06T01:34:04.501Z,101474.39
2017-11-06T01:36:06.947Z,101480.63
2017-11-06T01:38:09.404Z,101474.81
2017-11-06T01:40:11.865Z,101475.31
2017-11-06T01:42:14.401Z,101482.05
2017-11-06T01:44:16.856Z,101482.91
2017-11-06T01:46:19.292Z,101482.05
2017-11-06T01:48:21.736Z,101489.22
2017-11-06T01:50:24.260Z,101485.67
2017-11-06T01:52:26.700Z,101489.30
2017-11-06T01:54:29.205Z,101491.99
2017-11-06T01:56:31.674Z,101490.22
2017-11-06T01:58:34.123Z,101491.14
2017-11-06T02:00:36.582Z,101492.49
2017-11-06T02:02:39.045Z,101498.42
2017-11-06T02:04:41.556Z,101499.23
2017-11-06T02:06:43.995Z,101501.11
2017-11-06T02:08:46.453Z,101498.42
2017-11-06T02:10:48.887Z,101498.00
2017-11-06T02:12:51.321Z,101505.98
2017-11-06T02:14:53.820Z,101508.67
2017-11-06T02:16:56.287Z,101503.81
2017-11-06T02:18:58.745Z,101507.44
2017-11-06T02:21:01.209Z,101509.28
2017-11-06T02:23:03.652Z,101511.05
2017-11-06T02:25:06.094Z,101510.63
2017-11-06T02:27:08.558Z,101507.01
2017-11-06T02:29:11.000Z,101507.44
2017-11-06T02:31:13.571Z,101514.67
2017-11-06T02:33:16.036Z,101516.45
2017-11-06T02:35:18.480Z,101520.06
2017-11-06T02:37:20.975Z,101520.06
2017-11-06T02:39:23.434Z,101527.73
2017-11-06T02:41:25.873Z,101520.14
2017-11-06T02:43:28.312Z,101525.04
2017-11-06T02:45:30.767Z,101522.84
2017-11-06T02:47:33.209Z,101524.11
2017-11-06T02:49:35.636Z,101527.73
2017-11-06T02:51:38.133Z,101535.82
2017-11-06T02:53:40.568Z,101536.32
2017-11-06T02:55:43.107Z,101534.48
2017-11-06T02:57:45.568Z,101534.55
2017-11-06T02:59:48.010Z,101540.45
2017-11-06T03:01:50.448Z,101547.19
2017-11-06T03:03:52.913Z,101548.95
2017-11-06T03:05:55.365Z,101546.69
2017-11-06T03:07:57.823Z,101551.66
2017-11-06T03:10:00.268Z,101542.30
2017-11-06T03:12:02.709Z,101545.84
2017-11-06T03:14:05.162Z,101553.50
2017-11-06T03:16:07.638Z,101557.05
2017-11-06T03:18:10.106Z,101553.08
2017-11-06T03:20:12.661Z,101558.08
2017-11-06T03:22:15.217Z,101554.53
2017-11-06T03:24:17.661Z,101560.25
2017-11-06T03:26:20.158Z,101563.86
2017-11-06T03:28:22.612Z,101567.91
2017-11-06T03:30:25.107Z,101573.73
2017-11-06T03:32:27.675Z,101584.09
2017-11-06T03:34:30.140Z,101591.25
2017-11-06T03:36:32.580Z,101596.22
2017-11-06T03:38:35.022Z,101594.48
2017-11-06T03:40:37.479Z,101599.34
2017-11-06T03:42:39.916Z,101604.31
2017-11-06T03:44:42.369Z,101600.27
2017-11-06T03:46:44.832Z,101604.31
2017-11-06T03:48:47.289Z,101608.46
2017-11-06T03:50:49.809Z,101615.20
2017-11-06T03:52:52.271Z,101619.25
2017-11-06T03:54:54.709Z,101619.75
2017-11-06T03:56:57.229Z,101626.41
2017-11-06T03:58:59.685Z,101632.73
2017-11-06T04:01:02.125Z,101629.61
2017-11-06T04:03:04.567Z,101633.66
2017-11-06T04:05:07.038Z,101639.97
2017-11-06T04:07:09.491Z,101643.09
2017-11-06T04:09:11.922Z,101648.48
2017-11-06T04:11:14.408Z,101648.91
2017-11-06T04:13:16.862Z,101651.18
2017-11-06T04:15:19.313Z,101654.80
2017-11-06T04:17:21.792Z,101658.84
2017-11-06T04:19:24.224Z,101656.58
2017-11-06T04:21:26.663Z,101656.14
2017-11-06T04:23:29.148Z,101651.68
2017-11-06T04:25:31.602Z,101650.33
2017-11-06T04:27:34.045Z,101658.84
2017-11-06T04:29:36.549Z,101661.97
2017-11-06T04:31:38.999Z,101662.04
2017-11-06T04:33:44.440Z,101668.78
2017-11-06T04:35:46.909Z,101674.17
2017-11-06T04:37:49.338Z,101673.33
2017-11-06T04:39:51.860Z,101679.56
2017-11-06T04:41:54.426Z,101682.34
2017-11-06T04:43:56.908Z,101674.67
2017-11-06T04:45:59.349Z,101674.25
2017-11-06T04:48:01.820Z,101684.11
2017-11-06T04:50:04.250Z,101685.95
2017-11-06T04:52:06.680Z,101690.19
2017-11-06T04:54:09.135Z,101685.11
2017-11-06T04:56:11.627Z,101688.23
2017-11-06T04:58:14.072Z,101692.70
2017-11-06T05:00:16.573Z,101692.80
2017-11-06T05:02:19.016Z,101697.24
2017-11-06T05:04:21.475Z,101695.82
2017-11-06T05:06:23.937Z,101699.55
2017-11-06T05:08:26.407Z,101706.61
2017-11-06T05:10:28.900Z,101715.62
2017-11-06T05:12:32.255Z,101715.62
2017-11-06T05:14:34.693Z,101715.19
2017-11-06T05:16:37.144Z,101726.83
2017-11-06T05:18:39.696Z,101715.72
2017-11-06T05:20:42.180Z,101723.28
2017-11-06T05:22:44.633Z,101730.02
2017-11-06T05:24:47.103Z,101730.62
2017-11-06T05:26:49.589Z,101735.41
2017-11-06T05:28:52.066Z,101737.69
2017-11-06T05:30:54.652Z,101757.52
2017-11-06T05:32:57.093Z,101758.44
2017-11-06T05:34:59.732Z,101756.67
2017-11-06T05:37:02.198Z,101762.91
2017-11-06T05:39:04.642Z,101759.36
2017-11-06T05:41:07.083Z,101756.24
2017-11-06T05:43:09.668Z,101758.59
2017-11-06T05:45:12.101Z,101758.86
2017-11-06T05:47:14.537Z,101763.91
2017-11-06T05:49:17.165Z,101767.10
2017-11-06T05:51:19.655Z,101771.57
2017-11-06T05:53:22.123Z,101766.18
2017-11-06T05:55:24.566Z,101769.37
2017-11-06T05:57:27.039Z,101776.54
2017-11-06T05:59:29.516Z,101777.03
2017-11-06T06:01:31.984Z,101781.08
2017-11-06T06:03:34.428Z,101790.94
2017-11-06T06:05:36.886Z,101779.66
2017-11-06T06:07:39.346Z,101784.27
2017-11-06T06:09:41.871Z,101777.89
2017-11-06T06:11:44.314Z,101783.35
2017-11-06T06:13:46.823Z,101786.97
2017-11-06T06:15:49.238Z,101791.12
2017-11-06T06:17:51.687Z,101792.86
2017-11-06T06:19:54.153Z,101799.10
2017-11-06T06:21:56.693Z,101812.59
2017-11-06T06:23:59.145Z,101807.20
2017-11-06T06:26:01.608Z,101809.04
2017-11-06T06:28:04.044Z,101812.09
2017-11-06T06:30:06.481Z,101813.51
2017-11-06T06:32:08.940Z,101822.52
2017-11-06T06:34:11.380Z,101823.87
2017-11-06T06:36:14.046Z,101831.88
2017-11-06T06:38:16.513Z,101831.46
2017-11-06T06:40:19.032Z,101833.30
2017-11-06T06:42:21.541Z,101826.92
2017-11-06T06:44:24.010Z,101835.01
2017-11-06T06:46:26.530Z,101833.73
2017-11-06T06:48:28.970Z,101842.67
2017-11-06T06:50:31.434Z,101837.63
2017-11-06T06:52:33.863Z,101843.95
2017-11-06T06:54:36.308Z,101848.06
2017-11-06T06:56:38.801Z,101844.87
2017-11-06T06:58:41.246Z,101846.22
2017-11-06T07:00:43.721Z,101848.91
2017-11-06T07:02:46.195Z,101848.84
2017-11-06T07:04:48.676Z,101846.22
2017-11-06T07:06:51.115Z,101855.09
2017-11-06T07:08:53.577Z,101861.90
2017-11-06T07:10:56.025Z,101858.70
2017-11-06T07:12:58.649Z,101872.01
2017-11-06T07:15:01.128Z,101878.61
2017-11-06T07:17:03.592Z,101880.80
2017-11-06T07:19:06.028Z,101882.89
2017-11-06T07:21:08.494Z,101893.47
2017-11-06T07:23:10.932Z,101895.56
2017-11-06T07:25:13.365Z,101893.03
2017-11-06T07:27:15.853Z,101892.47
2017-11-06T07:29:18.294Z,101899.88
2017-11-06T07:31:20.792Z,101907.33
2017-11-06T07:33:23.260Z,101909.84
2017-11-06T07:35:25.702Z,101916.80
2017-11-06T07:37:28.350Z,101918.89
2017-11-06T07:39:30.863Z,101917.72
2017-11-06T07:41:33.305Z,101909.91
2017-11-06T07:43:35.797Z,101917.83
2017-11-06T07:45:38.328Z,101923.07
2017-11-06T07:47:41.662Z,101923.75
2017-11-06T07:49:44.104Z,101924.52
2017-11-06T07:51:46.588Z,101930.70
2017-11-06T07:53:49.084Z,101932.72
2017-11-06T07:55:51.553Z,101936.20
2017-11-06T07:57:54.025Z,101941.34
2017-11-06T07:59:56.473Z,101941.16
2017-11-06T08:01:58.959Z,101943.78
2017-11-06T08:04:01.526Z,101944.49
2017-11-06T08:06:04.107Z,101945.23
2017-11-06T08:08:06.553Z,101948.22
2017-11-06T08:10:09.103Z,101948.39
2017-11-06T08:12:11.625Z,101951.44
2017-11-06T08:14:14.077Z,101951.76
2017-11-06T08:16:16.531Z,101951.19
2017-11-06T08:18:18.973Z,101955.16
2017-11-06T08:20:21.424Z,101958.03
2017-11-06T08:22:23.915Z,101957.43
2017-11-06T08:24:26.432Z,101956.36
2017-11-06T08:26:28.922Z,101955.36
2017-11-06T08:28:31.388Z,101959.66
2017-11-06T08:30:33.845Z,101963.13
2017-11-06T08:32:36.285Z,101961.61
2017-11-06T08:34:38.737Z,101970.48
2017-11-06T08:37:00.229Z,101969.05
2017-11-06T08:39:02.940Z,101967.59
2017-11-06T08:41:05.441Z,101972.85
2017-11-06T08:43:07.884Z,101970.93
2017-11-06T08:45:10.389Z,101975.38
2017-11-06T08:47:13.000Z,101976.50
2017-11-06T08:49:15.458Z,101979.13
2017-11-06T08:51:17.929Z,101976.75
2017-11-06T08:53:20.432Z,101982.50
2017-11-06T08:55:22.868Z,101983.70
2017-11-06T08:57:25.307Z,101985.41
2017-11-06T08:59:27.816Z,101984.33
2017-11-06T09:01:30.350Z,101989.63
2017-11-06T09:03:34.482Z,101986.35
2017-11-06T09:05:38.785Z,101984.42
2017-11-06T09:07:42.831Z,101983.82
2017-11-06T09:09:45.352Z,101984.17
2017-11-06T09:11:47.847Z,101986.69
2017-11-06T09:13:50.296Z,101980.37
2017-11-06T09:15:52.785Z,101987.90
2017-11-06T09:17:55.273Z,101985.63
2017-11-06T09:19:57.705Z,101986.40
2017-11-06T09:22:00.172Z,101995.74
2017-11-06T09:24:02.661Z,102000.57
2017-11-06T09:26:05.154Z,102011.38
2017-11-06T09:28:07.590Z,102001.74
2017-11-06T09:30:10.150Z,102003.02
2017-11-06T09:32:12.859Z,102004.72
2017-11-06T09:34:15.420Z,102008.70
2017-11-06T09:36:17.976Z,102014.09
2017-11-06T09:38:20.433Z,102014.09
2017-11-06T09:40:23.117Z,102018.64
2017-11-06T09:42:25.578Z,102014.17
2017-11-06T09:44:28.023Z,102017.72
2017-11-06T09:46:30.457Z,102017.72
2017-11-06T09:48:32.941Z,102023.98
2017-11-06T09:50:35.369Z,102030.19
2017-11-06T09:52:38.048Z,102027.49
2017-11-06T09:54:40.527Z,102022.95
2017-11-06T09:56:42.977Z,102022.87
2017-11-06T09:58:45.480Z,102015.69
2017-11-06T10:00:48.005Z,102024.22
2017-11-06T10:02:50.440Z,102025.31
2017-11-06T10:04:52.872Z,102028.44
2017-11-06T10:06:55.445Z,102027.94
2017-11-06T10:08:57.915Z,102035.05
2017-11-06T10:11:00.352Z,102034.13
2017-11-06T10:13:02.824Z,102036.52
2017-11-06T10:15:05.289Z,102040.74
2017-11-06T10:17:07.771Z,102027.88
2017-11-06T10:19:10.240Z,102029.23
2017-11-06T10:21:12.730Z,102032.54
2017-11-06T10:23:15.180Z,102042.00
2017-11-06T10:25:17.680Z,102033.47
2017-11-06T10:27:20.141Z,102035.81
2017-11-06T10:29:22.646Z,102044.77
2017-11-06T10:31:25.133Z,102043.42
2017-11-06T10:33:27.572Z,102044.34
2017-11-06T10:35:30.013Z,102037.09
2017-11-06T10:37:32.485Z,102038.44
2017-11-06T10:39:36.258Z,102052.38
2017-11-06T10:41:38.933Z,102040.14
2017-11-06T10:43:41.440Z,102046.90
2017-11-06T10:45:43.876Z,102044.52
2017-11-06T10:47:46.318Z,102041.73
2017-11-06T10:49:48.853Z,102049.20
2017-11-06T10:51:51.290Z,102045.97
2017-11-06T10:53:53.730Z,102041.58
2017-11-06T10:55:56.220Z,102044.91
2017-11-06T10:57:58.665Z,102046.58
2017-11-06T11:00:01.100Z,102044.73
2017-11-06T11:02:03.588Z,102047.01
2017-11-06T11:04:06.016Z,102048.36
2017-11-06T11:06:08.460Z,102050.98
2017-11-06T11:08:10.972Z,102045.58
2017-11-06T11:10:13.453Z,102047.28
2017-11-06T11:12:15.924Z,102043.73
2017-11-06T11:14:18.392Z,102041.38
2017-11-06T11:16:20.832Z,102040.95
2017-11-06T11:18:23.328Z,102039.50
2017-11-06T11:20:25.820Z,102035.87
2017-11-06T11:22:28.252Z,102040.77
2017-11-06T11:24:30.694Z,102037.07
2017-11-06T11:26:33.413Z,102041.55
2017-11-06T11:28:35.880Z,102038.42
2017-11-06T11:30:38.355Z,102044.75
2017-11-06T11:32:40.817Z,102043.90
2017-11-06T11:34:43.287Z,102044.40
2017-11-06T11:36:45.735Z,102038.92
2017-11-06T11:38:48.237Z,102031.81
2017-11-06T11:40:50.707Z,102035.45
2017-11-06T11:42:53.243Z,102037.33
2017-11-06T11:44:55.711Z,102037.83
2017-11-06T11:46:58.221Z,102034.28
2017-11-06T11:49:00.675Z,102027.67
2017-11-06T11:51:03.159Z,102029.95
2017-11-06T11:53:05.628Z,102033.26
2017-11-06T11:55:08.086Z,102037.88
2017-11-06T11:57:10.573Z,102035.25
2017-11-06T11:59:13.025Z,102039.91
2017-11-06T12:01:15.466Z,102041.77
2017-11-06T12:03:17.977Z,102038.71
2017-11-06T12:05:20.416Z,102038.39
2017-11-06T12:07:22.896Z,102040.74
2017-11-06T12:09:25.364Z,102044.44
2017-11-06T12:11:27.880Z,102042.66
2017-11-06T12:13:30.348Z,102048.14
2017-11-06T12:15:32.901Z,102054.09
2017-11-06T12:17:35.338Z,102049.89
2017-11-06T12:19:37.782Z,102047.52
2017-11-06T12:21:40.243Z,102042.34
2017-11-06T12:23:42.692Z,102046.64
2017-11-06T12:25:46.138Z,102045.05
2017-11-06T12:27:48.599Z,102053.72
2017-11-06T12:29:51.118Z,102058.28
2017-11-06T12:31:54.472Z,102051.52
2017-11-06T12:33:56.944Z,102046.63
2017-11-06T12:35:59.503Z,102048.05
2017-11-06T12:38:01.976Z,102047.66
2017-11-06T12:40:04.460Z,102041.72
2017-11-06T12:42:06.975Z,102048.39
2017-11-06T12:44:09.429Z,102042.57
2017-11-06T12:46:11.885Z,102048.39
2017-11-06T12:48:14.333Z,102046.97
2017-11-06T12:50:16.836Z,102049.25
2017-11-06T12:52:19.298Z,102057.78
2017-11-06T12:54:21.736Z,102050.52
2017-11-06T12:56:24.251Z,102046.55
2017-11-06T12:58:26.795Z,102046.13
2017-11-06T13:00:29.229Z,102056.00
2017-11-06T13:02:31.665Z,102056.08
2017-11-06T13:04:34.132Z,102062.40
2017-11-06T13:06:36.734Z,102054.91
2017-11-06T13:08:39.185Z,102058.45
2017-11-06T13:10:41.686Z,102067.98
2017-11-06T13:12:44.208Z,102069.66
2017-11-06T13:14:46.697Z,102073.31
2017-11-06T13:16:49.157Z,102076.33
2017-11-06T13:18:51.600Z,102067.80
2017-11-06T13:20:54.102Z,102074.98
2017-11-06T13:22:56.569Z,102076.27
2017-11-06T13:24:59.018Z,102073.91
2017-11-06T13:27:01.467Z,102069.36
2017-11-06T13:29:03.923Z,102071.95
2017-11-06T13:31:06.380Z,102077.78
2017-11-06T13:33:08.936Z,102073.66
2017-11-06T13:35:11.708Z,102080.84
2017-11-06T13:37:14.153Z,102080.34
2017-11-06T13:39:16.749Z,102087.94
2017-11-06T13:41:20.118Z,102083.78
2017-11-06T13:43:22.582Z,102087.34
2017-11-06T13:45:25.341Z,102080.16
2017-11-06T13:47:27.856Z,102084.13
2017-11-06T13:49:30.313Z,102081.86
2017-11-06T13:51:32.748Z,102082.28
2017-11-06T13:53:35.292Z,102090.81
2017-11-06T13:55:37.733Z,102089.89
2017-11-06T13:57:40.211Z,102089.47
2017-11-06T13:59:42.780Z,102090.31
2017-11-06T14:01:45.233Z,102083.56
2017-11-06T14:03:47.669Z,102085.77
2017-11-06T14:05:50.245Z,102085.77
2017-11-06T14:07:52.683Z,102086.69
2017-11-06T14:09:55.119Z,102088.97
2017-11-06T14:11:57.582Z,102085.34
2017-11-06T14:14:00.038Z,102085.34
2017-11-06T14:16:02.634Z,102088.97
2017-11-06T14:18:05.114Z,102093.94
2017-11-06T14:20:07.560Z,102094.37
2017-11-06T14:22:10.033Z,102091.24
2017-11-06T14:24:12.518Z,102099.77
2017-11-06T14:26:15.049Z,102098.92
2017-11-06T14:28:17.568Z,102100.27
2017-11-06T14:30:20.037Z,102102.12
2017-11-06T14:32:22.481Z,102105.25
2017-11-06T14:34:24.920Z,102100.77
2017-11-06T14:36:27.381Z,102104.82
2017-11-06T14:38:29.824Z,102109.73
2017-11-06T14:40:32.292Z,102107.59
2017-11-06T14:42:34.758Z,102111.58
2017-11-06T14:44:37.231Z,102113.42
2017-11-06T14:46:39.751Z,102112.57
2017-11-06T14:48:42.215Z,102122.95
2017-11-06T14:50:44.647Z,102121.17
2017-11-06T14:52:47.184Z,102120.78
2017-11-06T14:54:49.653Z,102127.61
2017-11-06T14:56:52.108Z,102128.89
2017-11-06T14:58:54.549Z,102130.23
2017-11-06T15:00:57.001Z,102130.31
2017-11-06T15:02:59.449Z,102128.96
2017-11-06T15:05:01.885Z,102124.06
2017-11-06T15:07:04.382Z,102131.23
2017-11-06T15:09:06.820Z,102132.16
2017-11-06T15:11:09.253Z,102127.69
2017-11-06T15:13:11.725Z,102129.11
2017-11-06T15:15:14.176Z,102125.98
2017-11-06T15:17:16.642Z,102122.78
2017-11-06T15:19:19.107Z,102122.85
2017-11-06T15:21:21.608Z,102132.30
2017-11-06T15:23:24.215Z,102134.58
2017-11-06T15:25:26.787Z,102136.46
2017-11-06T15:27:29.218Z,102131.63
2017-11-06T15:29:31.664Z,102138.39
2017-11-06T15:31:34.233Z,102142.02
2017-11-06T15:33:36.660Z,102142.02
2017-11-06T15:35:39.103Z,102139.38
2017-11-06T15:37:41.565Z,102151.11
2017-11-06T15:39:44.015Z,102148.09
2017-11-06T15:41:46.553Z,102139.14
2017-11-06T15:43:49.020Z,102140.56
2017-11-06T15:45:51.501Z,102141.48
2017-11-06T15:47:54.080Z,102146.46
2017-11-06T15:49:56.549Z,102144.54
2017-11-06T15:51:59.006Z,102146.95
2017-11-06T15:54:01.509Z,102146.53
2017-11-06T15:56:04.015Z,102144.44
2017-11-06T15:58:06.469Z,102151.61
2017-11-06T16:00:08.945Z,102150.34
2017-11-06T16:02:11.392Z,102149.84
2017-11-06T16:04:13.950Z,102147.70
2017-11-06T16:06:16.386Z,102150.91
2017-11-06T16:08:18.868Z,102156.66
2017-11-06T16:10:21.381Z,102152.68
2017-11-06T16:12:23.830Z,102154.95
2017-11-06T16:14:26.320Z,102155.38
2017-11-06T16:16:28.776Z,102161.70
2017-11-06T16:18:31.265Z,102157.77
2017-11-06T16:20:33.731Z,102164.09
2017-11-06T16:22:36.201Z,102156.06
2017-11-06T16:24:38.633Z,102157.83
2017-11-06T16:26:41.148Z,102162.31
2017-11-06T16:28:43.590Z,102166.50
2017-11-06T16:30:46.027Z,102168.36
2017-11-06T16:32:48.488Z,102174.18
2017-11-06T16:34:50.946Z,102172.41
2017-11-06T16:36:53.403Z,102171.98
2017-11-06T16:38:55.960Z,102175.64
2017-11-06T16:40:58.451Z,102181.04
2017-11-06T16:43:01.009Z,102182.39
2017-11-06T16:45:03.468Z,102178.48
2017-11-06T16:47:05.915Z,102185.66
2017-11-06T16:49:08.424Z,102185.66
2017-11-06T16:51:10.893Z,102187.58
2017-11-06T16:53:13.352Z,102188.44
2017-11-06T16:55:15.845Z,102184.45
2017-11-06T16:57:18.303Z,102186.73
2017-11-06T16:59:20.735Z,102186.33
2017-11-06T17:01:23.185Z,102182.28
2017-11-06T17:03:25.658Z,102186.33
2017-11-06T17:05:28.113Z,102185.48
2017-11-06T17:07:30.555Z,102186.73
2017-11-06T17:09:33.030Z,102185.98
2017-11-06T17:11:35.516Z,102185.98
2017-11-06T17:13:37.963Z,102188.83
2017-11-06T17:15:40.541Z,102196.00
2017-11-06T17:17:43.051Z,102192.20
2017-11-06T17:19:45.501Z,102200.38
2017-11-06T17:21:47.984Z,102196.39
2017-11-06T17:23:50.425Z,102201.05
2017-11-06T17:25:52.936Z,102206.52
2017-11-06T17:27:55.489Z,102213.34
2017-11-06T17:29:58.026Z,102212.05
2017-11-06T17:32:00.531Z,102208.53
2017-11-06T17:34:02.992Z,102207.75
2017-11-06T17:36:05.530Z,102210.09
2017-11-06T17:38:08.069Z,102208.42
2017-11-06T17:40:10.544Z,102208.92
2017-11-06T17:42:13.108Z,102209.91
2017-11-06T17:44:15.553Z,102209.06
2017-11-06T17:46:18.074Z,102210.98
2017-11-06T17:48:20.600Z,102209.70
2017-11-06T17:50:23.086Z,102212.05
2017-11-06T17:52:25.591Z,102208.50
2017-11-06T17:54:28.029Z,102210.45
2017-11-06T17:56:30.479Z,102216.34
2017-11-06T17:58:33.016Z,102221.88
2017-11-06T18:00:35.481Z,102221.56
2017-11-06T18:02:37.961Z,102222.98
2017-11-06T18:04:40.529Z,102224.41
2017-11-06T18:06:42.989Z,102217.72
2017-11-06T18:08:45.437Z,102228.20
2017-11-06T18:10:47.903Z,102226.92
2017-11-06T18:12:50.357Z,102227.91
2017-11-06T18:14:52.917Z,102228.41
2017-11-06T18:16:55.379Z,102229.00
2017-11-06T18:18:57.852Z,102225.03
2017-11-06T18:21:00.286Z,102228.65
2017-11-06T18:23:02.753Z,102235.14
2017-11-06T18:25:05.225Z,102239.19
2017-11-06T18:27:07.660Z,102242.89
2017-11-06T18:29:10.177Z,102242.03
2017-11-06T18:31:12.664Z,102242.59
2017-11-06T18:33:15.105Z,102245.30
2017-11-06T18:35:17.582Z,102243.63
2017-11-06T18:37:20.110Z,102246.39
2017-11-06T18:39:22.578Z,102246.39
2017-11-06T18:41:25.053Z,102247.81
2017-11-06T18:43:27.508Z,102244.69
2017-11-06T18:45:30.055Z,102245.61
2017-11-06T18:47:32.516Z,102241.66
2017-11-06T18:49:34.969Z,102246.20
2017-11-06T18:51:37.444Z,102244.92
2017-11-06T18:53:39.910Z,102254.80
2017-11-06T18:55:42.391Z,102256.22
2017-11-06T18:57:44.825Z,102249.97
2017-11-06T18:59:47.284Z,102254.44
2017-11-06T19:01:49.784Z,102255.86
2017-11-06T19:03:52.217Z,102259.16
2017-11-06T19:05:54.671Z,102259.16
2017-11-06T19:07:57.133Z,102265.41
2017-11-06T19:09:59.685Z,102269.53
2017-11-06T19:12:02.148Z,102266.41
2017-11-06T19:14:04.589Z,102270.45
2017-11-06T19:16:07.050Z,102267.89
2017-11-06T19:18:09.511Z,102269.17
2017-11-06T19:20:11.961Z,102269.17
2017-11-06T19:22:14.492Z,102267.89
2017-11-06T19:24:16.966Z,102271.11
2017-11-06T19:26:19.403Z,102276.09
2017-11-06T19:28:21.844Z,102274.31
2017-11-06T19:30:24.320Z,102266.71
2017-11-06T19:32:26.773Z,102267.70
2017-11-06T19:34:29.226Z,102269.48
2017-11-06T19:36:31.687Z,102269.91
2017-11-06T19:38:34.154Z,102265.00
2017-11-06T19:40:36.618Z,102267.70
2017-11-06T19:42:39.668Z,102272.67
2017-11-06T19:44:42.189Z,102271.39
2017-11-06T19:46:44.809Z,102273.70
2017-11-06T19:48:47.653Z,102275.97
2017-11-06T19:50:50.470Z,102273.77
2017-11-06T19:52:53.087Z,102275.54
2017-11-06T19:54:55.656Z,102274.26
2017-11-06T19:56:58.102Z,102280.08
2017-11-06T19:59:00.859Z,102280.16
2017-11-06T20:01:03.361Z,102287.75
2017-11-06T20:03:05.808Z,102286.41
2017-11-06T20:05:08.264Z,102289.53
2017-11-06T20:07:10.785Z,102294.99
2017-11-06T20:09:13.255Z,102285.19
2017-11-06T20:11:15.692Z,102294.64
2017-11-06T20:13:18.157Z,102295.59
2017-11-06T20:15:20.612Z,102301.81
2017-11-06T20:17:23.063Z,102300.03
2017-11-06T20:19:25.558Z,102301.91
2017-11-06T20:21:28.040Z,102305.95
2017-11-06T20:23:30.494Z,102305.10
2017-11-06T20:25:32.977Z,102305.95
2017-11-06T20:27:35.505Z,102307.38
2017-11-06T20:29:38.072Z,102313.62
2017-11-06T20:31:40.548Z,102311.42
2017-11-06T20:33:42.988Z,102310.08
2017-11-06T20:35:45.433Z,102307.80
2017-11-06T20:37:48.069Z,102309.65
2017-11-06T20:39:50.524Z,102307.87
2017-11-06T20:41:52.983Z,102327.25
2017-11-06T20:43:55.571Z,102315.11
2017-11-06T20:45:58.032Z,102315.61
2017-11-06T20:48:00.469Z,102319.23
2017-11-06T20:50:02.959Z,102319.33
2017-11-06T20:52:05.400Z,102317.05
2017-11-06T20:54:07.973Z,102314.86
2017-11-06T20:56:10.455Z,102323.38
2017-11-06T20:58:12.897Z,102313.08
2017-11-06T21:00:15.372Z,102318.48
2017-11-06T21:02:17.832Z,102314.92
2017-11-06T21:04:20.268Z,102311.37
2017-11-06T21:06:22.709Z,102309.53
2017-11-06T21:08:25.160Z,102309.09
2017-11-06T21:10:27.672Z,102315.41
2017-11-06T21:12:30.119Z,102312.79
2017-11-06T21:14:32.584Z,102306.89
2017-11-06T21:16:35.032Z,102310.58
2017-11-06T21:18:37.476Z,102308.31
2017-11-06T21:20:39.939Z,102303.45
2017-11-06T21:22:42.484Z,102311.11
2017-11-06T21:24:44.960Z,102299.89
2017-11-06T21:26:47.426Z,102306.21
2017-11-06T21:28:49.870Z,102299.47
2017-11-06T21:30:52.310Z,102297.20
2017-11-06T21:32:54.762Z,102301.67
2017-11-06T21:34:57.270Z,102295.42
2017-11-06T21:36:59.796Z,102298.12
2017-11-06T21:39:02.259Z,102301.24
2017-11-06T21:41:04.702Z,102298.19
2017-11-06T21:43:07.153Z,102292.78
2017-11-06T21:45:09.610Z,102293.71
2017-11-06T21:47:12.079Z,102297.76
2017-11-06T21:49:14.534Z,102297.33
2017-11-06T21:51:17.019Z,102304.93
2017-11-06T21:53:19.468Z,102298.25
2017-11-06T21:55:21.972Z,102294.20
2017-11-06T21:57:24.443Z,102292.00
2017-11-06T21:59:26.888Z,102297.83
2017-11-06T22:01:29.433Z,102292.43
2017-11-06T22:03:31.887Z,102289.41
2017-11-06T22:05:34.435Z,102302.05
2017-11-06T22:07:36.895Z,102303.39
2017-11-06T22:09:39.397Z,102294.87
2017-11-06T22:11:41.860Z,102303.81
2017-11-06T22:13:44.300Z,102293.52
2017-11-06T22:15:46.819Z,102298.92
2017-11-06T22:17:49.260Z,102299.34
2017-11-06T22:19:51.761Z,102296.72
2017-11-06T22:21:54.264Z,102300.77
2017-11-06T22:23:56.700Z,102292.23
2017-11-06T22:25:59.136Z,102289.11
2017-11-06T22:28:01.602Z,102291.39
2017-11-06T22:30:04.065Z,102292.80
2017-11-06T22:32:06.508Z,102290.53
2017-11-06T22:34:08.982Z,102290.04
2017-11-06T22:36:11.530Z,102285.56
2017-11-06T22:38:13.998Z,102285.98
2017-11-06T22:40:16.462Z,102291.88
2017-11-06T22:42:18.942Z,102285.14
2017-11-06T22:44:21.389Z,102289.28
2017-11-06T22:46:23.862Z,102286.16
2017-11-06T22:48:26.299Z,102289.71
2017-11-06T22:50:28.732Z,102283.95
2017-11-06T22:52:31.222Z,102283.89
2017-11-06T22:54:33.655Z,102287.94
2017-11-06T22:56:36.173Z,102280.83
2017-11-06T22:58:38.645Z,102284.39
2017-11-06T23:00:41.078Z,102284.39
2017-11-06T23:02:43.538Z,102274.09
2017-11-06T23:04:45.999Z,102274.52
2017-11-06T23:06:48.439Z,102277.71
2017-11-06T23:08:50.887Z,102272.31
2017-11-06T23:10:53.352Z,102261.09
2017-11-06T23:12:55.785Z,102266.06
2017-11-06T23:14:58.238Z,102268.70
2017-11-06T23:17:00.702Z,102266.48